Time;durP1;ratioP1;P1;durP2;ratioP2;P2;SDS_P1;SDS_P2;PMS_P1;PMS_P2;Temp;Humidity;BMP_temperature;BMP_pressure;BME280_temperature;BME280_humidity;BME280_pressure;Samples;Min_cycle;Max_cycle;Signal;HPM_P1;HPM_P2
2022/12/10 00:00:36;;;;;;;38.93;16.20;;;-0.20;99.90;;;;;;5019359;28;20434;-69
2022/12/10 00:03:02;;;;;;;34.53;16.70;;;-0.20;99.90;;;;;;5021858;28;20122;-71
2022/12/10 00:05:27;;;;;;;35.73;14.50;;;-0.20;99.90;;;;;;5018986;28;20525;-71
2022/12/10 00:07:53;;;;;;;41.43;16.77;;;-0.20;99.90;;;;;;5022115;28;20067;-71
2022/12/10 00:10:18;;;;;;;42.50;16.40;;;-0.20;99.90;;;;;;5022135;28;20033;-70
2022/12/10 00:12:44;;;;;;;33.23;13.73;;;-0.20;99.90;;;;;;5019953;28;20045;-71
2022/12/10 00:15:10;;;;;;;37.30;14.97;;;-0.20;99.90;;;;;;5020546;28;20037;-70
2022/12/10 00:17:36;;;;;;;43.47;15.90;;;-0.30;99.90;;;;;;5018522;28;20128;-70
2022/12/10 00:20:02;;;;;;;40.45;15.60;;;-0.20;99.90;;;;;;5020399;28;20087;-70
2022/12/10 00:22:28;;;;;;;45.70;16.63;;;-0.30;99.90;;;;;;5018875;28;20271;-71
2022/12/10 00:24:53;;;;;;;45.50;14.63;;;-0.30;99.90;;;;;;5021526;28;20052;-70
2022/12/10 00:27:19;;;;;;;37.40;14.63;;;-0.30;99.90;;;;;;5017340;28;20050;-71
2022/12/10 00:29:45;;;;;;;42.73;15.53;;;-0.30;99.90;;;;;;5019856;28;20124;-70
2022/12/10 00:32:10;;;;;;;41.97;16.23;;;-0.20;99.90;;;;;;5016172;28;20121;-70
2022/12/10 00:34:36;;;;;;;40.43;16.27;;;-0.20;99.90;;;;;;5020007;28;20167;-69
2022/12/10 00:37:02;;;;;;;41.90;15.87;;;-0.20;99.90;;;;;;5021239;28;20041;-70
2022/12/10 00:39:28;;;;;;;40.87;14.17;;;-0.20;99.90;;;;;;5020697;28;20044;-70
2022/12/10 00:41:54;;;;;;;39.97;15.73;;;-0.30;99.90;;;;;;5015469;28;20043;-68
2022/12/10 00:44:20;;;;;;;36.80;15.73;;;-0.20;99.90;;;;;;5016725;28;20542;-69
2022/12/10 00:46:46;;;;;;;42.07;16.43;;;-0.10;99.90;;;;;;5017472;28;20041;-69
2022/12/10 00:49:12;;;;;;;43.57;15.83;;;-0.10;99.90;;;;;;5020876;28;20041;-68
2022/12/10 00:51:38;;;;;;;38.65;15.52;;;-0.20;99.90;;;;;;5019164;28;20083;-68
2022/12/10 00:54:04;;;;;;;37.17;15.73;;;-0.10;99.90;;;;;;5017606;28;20049;-68
2022/12/10 00:56:32;;;;;;;37.40;14.77;;;-0.10;99.90;;;;;;5019077;28;20045;-69
2022/12/10 00:58:59;;;;;;;43.35;16.70;;;-0.10;99.90;;;;;;5015390;28;20449;-68
2022/12/10 01:01:29;;;;;;;;;;;-0.10;99.90;;;;;;5019672;28;20072;-70
2022/12/10 01:04:00;;;;;;;36.20;15.05;;;-0.10;99.90;;;;;;5018486;28;19921;-69
2022/12/10 01:06:34;;;;;;;41.17;16.75;;;0.00;99.90;;;;;;5020622;28;20136;-69
2022/12/10 01:09:04;;;;;;;42.53;17.05;;;0.00;99.90;;;;;;5014422;28;20124;-70
2022/12/10 01:11:33;;;;;;;41.80;17.15;;;0.00;99.90;;;;;;5017994;28;20107;-69
2022/12/10 01:13:59;;;;;;;39.55;15.52;;;0.00;99.90;;;;;;5019145;28;20045;-69
2022/12/10 01:16:25;;;;;;;42.15;16.42;;;0.00;99.90;;;;;;5019514;28;20037;-68
2022/12/10 01:18:58;;;;;;;41.13;15.68;;;0.00;99.90;;;;;;5016973;28;20045;-69
2022/12/10 01:21:26;;;;;;;51.30;18.13;;;0.00;99.90;;;;;;5021279;28;20037;-69
2022/12/10 01:23:53;;;;;;;52.53;16.38;;;0.00;99.90;;;;;;5019914;28;20172;-69
2022/12/10 01:26:21;;;;;;;43.10;16.42;;;0.00;99.90;;;;;;5016312;28;20080;-70
2022/12/10 01:28:48;;;;;;;39.95;16.10;;;0.00;99.90;;;;;;5020366;28;20049;-69
2022/12/10 01:31:20;;;;;;;;;;;0.00;99.90;;;;;;5014874;28;20491;-69
2022/12/10 01:33:46;;;;;;;41.63;15.70;;;0.00;99.90;;;;;;5031038;28;20012;-69
2022/12/10 01:36:19;;;;;;;36.38;15.23;;;0.10;99.90;;;;;;5017407;28;20665;-70
2022/12/10 01:38:45;;;;;;;39.38;14.10;;;0.00;99.90;;;;;;5020806;28;20045;-70
2022/12/10 01:41:17;;;;;;;45.65;17.50;;;0.00;99.90;;;;;;5019980;28;20506;-69
2022/12/10 01:44:23;;;;;;;40.28;15.20;;;0.10;99.90;;;;;;5019743;28;20065;-69
2022/12/10 01:47:00;;;;;;;40.13;16.05;;;0.10;99.90;;;;;;5010742;28;20068;-69
2022/12/10 01:49:35;;;;;;;40.60;15.77;;;0.10;99.90;;;;;;5015733;28;20034;-69
2022/12/10 01:52:01;;;;;;;40.85;16.80;;;0.10;99.90;;;;;;5016554;28;20892;-69
2022/12/10 01:54:48;;;;;;;47.08;16.85;;;0.10;99.90;;;;;;5016118;28;20052;-70
2022/12/10 01:57:18;;;;;;;44.85;15.20;;;0.10;99.90;;;;;;5014272;28;20570;-71
2022/12/10 01:59:46;;;;;;;42.45;16.63;;;0.10;99.90;;;;;;5020186;28;20056;-71
2022/12/10 02:02:28;;;;;;;48.53;17.67;;;0.10;99.90;;;;;;5015422;28;20053;-70
2022/12/10 02:05:24;;;;;;;41.05;16.08;;;0.10;99.90;;;;;;5013826;28;20522;-70
2022/12/10 02:07:57;;;;;;;38.25;14.93;;;0.00;99.90;;;;;;5023710;28;20052;-71
2022/12/10 02:10:53;;;;;;;44.38;16.25;;;0.00;99.90;;;;;;5022048;28;20499;-70
2022/12/10 02:13:28;;;;;;;35.08;14.70;;;-0.10;99.90;;;;;;5025319;28;20109;-71
2022/12/10 02:16:13;;;;;;;47.25;17.48;;;-0.10;99.90;;;;;;5019706;28;20037;-71
2022/12/10 02:18:49;;;;;;;44.60;16.73;;;-0.20;99.90;;;;;;5023808;28;20223;-71
2022/12/10 02:21:22;;;;;;;34.90;14.38;;;-0.20;99.90;;;;;;5024115;28;20043;-71
2022/12/10 02:24:11;;;;;;;41.40;15.32;;;-0.30;99.90;;;;;;5018989;28;20042;-71
2022/12/10 02:26:51;;;;;;;36.45;14.73;;;-0.30;99.90;;;;;;5002677;28;20294;-70
2022/12/10 02:29:24;;;;;;;37.67;14.77;;;-0.30;99.90;;;;;;5023006;28;20049;-70
2022/12/10 02:32:14;;;;;;;37.05;15.15;;;-0.30;99.90;;;;;;5025032;28;20376;-70
2022/12/10 02:34:50;;;;;;;40.72;16.55;;;-0.40;99.90;;;;;;5026425;28;20053;-71
2022/12/10 02:37:36;;;;;;;39.42;15.70;;;-0.40;99.90;;;;;;5014008;28;20046;-70
2022/12/10 02:40:09;;;;;;;40.78;16.27;;;-0.40;99.90;;;;;;5024299;28;20118;-71
2022/12/10 02:42:38;;;;;;;44.10;16.65;;;-0.40;99.90;;;;;;5024465;28;20049;-70
2022/12/10 02:45:05;;;;;;;47.35;17.02;;;-0.50;99.90;;;;;;5018900;28;20038;-71
2022/12/10 02:47:31;;;;;;;48.03;16.98;;;-0.50;99.90;;;;;;5025758;28;20041;-70
2022/12/10 02:49:58;;;;;;;37.88;14.75;;;-0.50;99.90;;;;;;5026852;28;20077;-70
2022/12/10 02:52:25;;;;;;;38.72;15.63;;;-0.60;99.90;;;;;;5018382;28;20597;-70
2022/12/10 02:54:51;;;;;;;38.08;15.15;;;-0.60;99.90;;;;;;5022963;28;20045;-71
2022/12/10 02:57:59;;;;;;;51.22;16.48;;;-0.70;99.90;;;;;;5020444;28;20080;-70
2022/12/10 03:00:25;;;;;;;39.25;16.35;;;-0.70;99.90;;;;;;5020953;28;20045;-70
2022/12/10 03:02:57;;;;;;;39.80;14.70;;;-0.70;99.90;;;;;;5022695;28;20045;-70
2022/12/10 03:05:47;;;;;;;36.90;14.43;;;-0.70;99.90;;;;;;5019694;28;20075;-70
2022/12/10 03:08:21;;;;;;;42.80;16.17;;;-0.70;99.90;;;;;;5021410;28;20446;-70
2022/12/10 03:10:59;;;;;;;46.25;18.05;;;-0.70;99.90;;;;;;5023975;28;20042;-70
2022/12/10 03:14:02;;;;;;;45.25;15.90;;;-0.60;99.90;;;;;;5007367;28;20071;-70
2022/12/10 03:16:37;;;;;;;45.47;15.30;;;-0.60;99.90;;;;;;5019806;28;20041;-70
2022/12/10 03:19:07;;;;;;;48.40;17.02;;;-0.60;99.90;;;;;;5022940;28;20392;-70
2022/12/10 03:21:36;;;;;;;42.63;16.80;;;-0.60;99.90;;;;;;5020281;28;20041;-70
2022/12/10 03:24:03;;;;;;;41.50;16.45;;;-0.60;99.90;;;;;;5023077;28;20048;-70
2022/12/10 03:26:28;;;;;;;;;;;-0.60;99.90;;;;;;5022666;28;20048;-70
2022/12/10 03:29:01;;;;;;;41.33;16.67;;;-0.50;99.90;;;;;;5024261;28;19921;-70
2022/12/10 03:31:28;;;;;;;49.63;18.45;;;-0.50;99.90;;;;;;5020326;28;20037;-70
2022/12/10 03:33:54;;;;;;;40.38;16.33;;;-0.50;99.90;;;;;;5023370;28;20041;-70
2022/12/10 03:36:21;;;;;;;46.30;16.77;;;-0.50;99.90;;;;;;5022064;28;20399;-70
2022/12/10 03:38:46;;;;;;;;;;;-0.50;99.90;;;;;;5024584;28;20471;-71
2022/12/10 03:41:12;;;;;;;38.42;15.65;;;-0.50;99.90;;;;;;5023614;28;19921;-71
2022/12/10 03:44:11;;;;;;;46.05;16.13;;;-0.50;99.90;;;;;;5021950;28;20104;-70
2022/12/10 03:46:37;;;;;;;54.45;17.17;;;-0.50;99.90;;;;;;4976360;28;20251;-70
2022/12/10 03:49:03;;;;;;;44.50;17.50;;;-0.50;99.90;;;;;;5017243;28;20519;-70
2022/12/10 03:51:29;;;;;;;47.07;16.87;;;-0.50;99.90;;;;;;5023281;28;21033;-70
2022/12/10 03:53:54;;;;;;;50.13;15.80;;;-0.40;99.90;;;;;;5022818;28;20483;-71
2022/12/10 03:56:21;;;;;;;46.00;15.87;;;-0.40;99.90;;;;;;5020210;28;20041;-70
2022/12/10 03:58:46;;;;;;;46.72;16.90;;;-0.40;99.90;;;;;;5019932;28;20406;-70
2022/12/10 04:01:13;;;;;;;46.43;17.20;;;-0.50;99.90;;;;;;5019471;28;20045;-70
2022/12/10 04:03:41;;;;;;;45.75;16.30;;;-0.40;99.90;;;;;;5022959;28;20049;-70
2022/12/10 04:06:12;;;;;;;47.00;17.27;;;-0.40;99.90;;;;;;5007971;28;20511;-70
2022/12/10 04:08:38;;;;;;;56.17;17.40;;;-0.40;99.90;;;;;;5022514;28;20132;-69
2022/12/10 04:11:09;;;;;;;56.67;16.83;;;-0.40;99.90;;;;;;5022243;28;20475;-69
2022/12/10 04:16:27;;;;;;;43.05;16.67;;;-0.40;99.90;;;;;;5017276;28;20037;-68
2022/12/10 04:18:54;;;;;;;52.00;15.90;;;-0.40;99.90;;;;;;5024111;28;20340;-69
2022/12/10 04:26:51;;;;;;;58.45;17.40;;;-0.40;99.90;;;;;;5023366;28;20041;-69
2022/12/10 04:29:21;;;;;;;55.28;15.38;;;-0.30;99.90;;;;;;5021577;28;20099;-69
2022/12/10 04:31:47;;;;;;;61.08;16.23;;;-0.30;99.90;;;;;;5019150;28;20042;-69
2022/12/10 04:34:13;;;;;;;55.90;15.40;;;-0.20;99.90;;;;;;5020332;28;20439;-69
2022/12/10 04:36:38;;;;;;;49.50;15.13;;;-0.30;99.90;;;;;;5024334;28;20128;-69
2022/12/10 04:39:04;;;;;;;60.67;13.73;;;-0.20;99.90;;;;;;5024167;28;20084;-69
2022/12/10 04:41:30;;;;;;;87.80;16.77;;;-0.20;99.90;;;;;;5023927;28;20033;-69
2022/12/10 04:43:55;;;;;;;63.43;15.47;;;-0.20;99.90;;;;;;5024721;28;20029;-69
2022/12/10 04:46:21;;;;;;;84.67;16.73;;;-0.20;99.90;;;;;;5024345;28;20553;-69
2022/12/10 04:48:47;;;;;;;59.73;16.07;;;-0.20;99.90;;;;;;5022314;28;20293;-69
2022/12/10 04:51:12;;;;;;;76.77;16.00;;;-0.20;99.90;;;;;;5021484;28;20049;-69
2022/12/10 04:53:40;;;;;;;83.73;17.63;;;-0.10;99.90;;;;;;5022275;28;20139;-69
2022/12/10 04:58:39;;;;;;;61.95;15.32;;;-0.10;99.90;;;;;;5015868;28;20567;-73
2022/12/10 05:01:08;;;;;;;80.10;14.87;;;-0.10;99.90;;;;;;5018219;28;20042;-73
2022/12/10 05:03:34;;;;;;;51.42;15.55;;;-0.10;99.90;;;;;;5012792;28;20076;-73
2022/12/10 05:06:04;;;;;;;;;;;-0.10;99.90;;;;;;5023710;28;20526;-73
2022/12/10 05:08:30;;;;;;;77.88;13.20;;;-0.10;99.90;;;;;;5015595;28;19999;-73
2022/12/10 05:11:01;;;;;;;56.22;15.48;;;0.00;99.90;;;;;;5020618;28;20207;-73
2022/12/10 05:13:27;;;;;;;71.72;14.98;;;0.00;99.90;;;;;;5023289;28;20505;-73
2022/12/10 05:15:53;;;;;;;65.03;14.70;;;0.00;99.90;;;;;;5013459;28;20137;-73
2022/12/10 05:18:19;;;;;;;56.10;14.90;;;0.00;99.90;;;;;;5017820;28;21701;-72
2022/12/10 05:20:44;;;;;;;55.50;14.37;;;0.00;99.90;;;;;;5018117;28;20042;-72
2022/12/10 05:23:28;;;;;;;55.47;14.37;;;0.00;99.90;;;;;;5018464;28;20037;-72
2022/12/10 05:26:12;;;;;;;50.38;13.65;;;0.00;99.90;;;;;;5029332;28;20499;-72
2022/12/10 05:28:44;;;;;;;45.65;14.18;;;0.00;99.90;;;;;;5023598;28;20045;-72
2022/12/10 05:31:21;;;;;;;87.63;16.40;;;0.10;99.90;;;;;;5014082;28;20045;-72
2022/12/10 05:33:47;;;;;;;67.53;14.95;;;0.00;99.90;;;;;;5022193;28;20361;-72
2022/12/10 05:36:15;;;;;;;83.25;15.00;;;0.10;99.90;;;;;;5017802;28;20091;-72
2022/12/10 05:38:41;;;;;;;74.10;15.23;;;0.20;99.90;;;;;;5019202;28;20211;-72
2022/12/10 05:41:13;;;;;;;68.60;18.13;;;0.10;99.90;;;;;;5019201;28;20049;-72
2022/12/10 05:43:40;;;;;;;68.78;15.05;;;0.10;99.90;;;;;;5020554;28;20033;-72
2022/12/10 05:46:08;;;;;;;60.53;13.23;;;0.10;99.90;;;;;;5016629;28;20053;-72
2022/12/10 05:48:35;;;;;;;44.90;14.30;;;0.10;99.90;;;;;;5013481;28;20668;-72
2022/12/10 05:51:05;;;;;;;64.53;13.68;;;0.20;99.90;;;;;;5021415;28;20474;-72
2022/12/10 05:53:31;;;;;;;48.45;12.40;;;0.20;99.90;;;;;;5027344;28;20045;-72
2022/12/10 05:56:08;;;;;;;65.83;14.90;;;0.10;99.90;;;;;;5020305;28;20052;-72
2022/12/10 05:58:35;;;;;;;58.42;13.57;;;0.20;99.90;;;;;;5021416;28;20037;-72
2022/12/10 06:01:06;;;;;;;57.70;13.23;;;0.20;99.90;;;;;;5027152;28;20144;-72
2022/12/10 06:03:34;;;;;;;57.53;13.00;;;0.20;99.90;;;;;;5021136;28;20048;-72
2022/12/10 06:06:00;;;;;;;60.42;13.45;;;0.20;99.90;;;;;;5009243;28;20185;-72
2022/12/10 06:08:25;;;;;;;65.27;14.20;;;0.20;99.90;;;;;;5015677;28;20075;-72
2022/12/10 06:10:51;;;;;;;55.97;13.07;;;0.30;99.90;;;;;;5016053;28;20060;-72
2022/12/10 06:13:17;;;;;;;41.07;12.77;;;0.30;99.90;;;;;;5024067;28;20045;-72
2022/12/10 06:15:43;;;;;;;42.47;10.80;;;0.30;99.90;;;;;;5022641;28;20048;-72
2022/12/10 06:18:08;;;;;;;68.50;13.07;;;0.30;99.90;;;;;;5030267;28;20079;-72
2022/12/10 06:20:37;;;;;;;88.27;12.93;;;0.30;99.90;;;;;;5019528;28;20046;-72
2022/12/10 06:23:02;;;;;;;71.65;12.90;;;0.30;99.90;;;;;;5021522;28;21527;-72
2022/12/10 06:25:28;;;;;;;53.33;11.60;;;0.30;99.90;;;;;;5021036;28;20037;-72
2022/12/10 06:27:53;;;;;;;34.23;11.50;;;0.30;99.90;;;;;;5038480;28;20104;-72
2022/12/10 06:30:19;;;;;;;37.70;10.23;;;0.30;99.90;;;;;;5019693;28;20041;-72
2022/12/10 06:32:45;;;;;;;61.43;12.07;;;0.30;99.90;;;;;;5014559;28;20073;-72
2022/12/10 06:35:11;;;;;;;56.23;10.80;;;0.40;99.90;;;;;;5025456;28;20454;-72
2022/12/10 06:37:37;;;;;;;38.80;11.57;;;0.40;99.90;;;;;;5035862;28;20064;-72
2022/12/10 06:40:04;;;;;;;49.63;13.07;;;0.40;99.90;;;;;;5016166;28;20041;-72
2022/12/10 06:42:29;;;;;;;58.60;12.00;;;0.40;99.90;;;;;;5017527;28;20442;-72
2022/12/10 06:44:56;;;;;;;53.90;11.33;;;0.40;99.90;;;;;;5015707;28;20049;-73
2022/12/10 06:47:22;;;;;;;31.83;10.23;;;0.30;99.90;;;;;;5022208;28;20046;-72
2022/12/10 06:49:47;;;;;;;56.43;12.07;;;0.40;99.90;;;;;;5017967;28;20041;-72
2022/12/10 06:52:13;;;;;;;38.70;10.77;;;0.40;99.90;;;;;;5016373;28;20037;-72
2022/12/10 06:54:39;;;;;;;35.50;10.93;;;0.40;99.90;;;;;;5023514;28;20120;-72
2022/12/10 06:57:04;;;;;;;62.70;10.73;;;0.40;99.90;;;;;;5019277;28;20042;-72
2022/12/10 06:59:30;;;;;;;48.37;9.53;;;0.40;99.90;;;;;;5022047;28;20045;-72
2022/12/10 07:01:56;;;;;;;38.90;9.80;;;0.40;99.90;;;;;;5018214;28;20037;-72
2022/12/10 07:04:21;;;;;;;62.73;11.40;;;0.40;99.90;;;;;;5021627;28;20277;-72
2022/12/10 07:06:47;;;;;;;40.53;9.67;;;0.30;99.90;;;;;;5021859;28;20048;-72
2022/12/10 07:09:13;;;;;;;57.27;10.77;;;0.30;99.90;;;;;;5023022;28;20150;-73
2022/12/10 07:11:39;;;;;;;47.10;9.07;;;0.30;99.90;;;;;;5023319;28;20434;-72
2022/12/10 07:14:04;;;;;;;42.13;9.60;;;0.30;99.90;;;;;;5014545;28;20045;-72
2022/12/10 07:16:32;;;;;;;36.07;9.83;;;0.30;99.90;;;;;;5012093;28;20052;-72
2022/12/10 07:18:59;;;;;;;42.47;9.68;;;0.30;99.90;;;;;;5040217;28;20460;-72
2022/12/10 07:21:36;;;;;;;33.33;8.93;;;0.30;99.90;;;;;;5026586;28;20750;-72
2022/12/10 07:24:07;;;;;;;29.65;8.57;;;0.20;99.90;;;;;;5024493;28;20068;-72
2022/12/10 07:26:36;;;;;;;30.48;9.13;;;0.30;99.90;;;;;;5019347;28;20052;-72
2022/12/10 07:29:03;;;;;;;30.58;8.73;;;0.20;99.90;;;;;;5016012;28;20067;-72
2022/12/10 07:31:29;;;;;;;38.65;9.32;;;0.30;99.90;;;;;;5017918;28;20507;-72
2022/12/10 07:33:58;;;;;;;33.22;8.32;;;0.20;99.90;;;;;;5007042;28;20121;-72
2022/12/10 07:36:24;;;;;;;57.58;9.18;;;0.20;99.90;;;;;;5021123;28;20148;-72
2022/12/10 07:38:50;;;;;;;44.10;8.63;;;0.20;99.90;;;;;;5019586;28;20050;-72
2022/12/10 07:41:17;;;;;;;;;;;0.20;99.90;;;;;;5023873;28;20063;-72
2022/12/10 07:43:44;;;;;;;48.97;7.82;;;0.20;99.90;;;;;;5024273;28;20340;-72
2022/12/10 07:46:13;;;;;;;37.30;8.60;;;0.20;99.90;;;;;;5023439;28;20289;-72
2022/12/10 07:48:40;;;;;;;49.10;8.55;;;0.20;99.90;;;;;;5022069;28;20387;-72
2022/12/10 07:51:07;;;;;;;61.10;8.75;;;0.20;99.90;;;;;;5021251;28;20034;-72
2022/12/10 07:53:32;;;;;;;59.70;9.70;;;0.20;99.90;;;;;;5018991;28;20119;-72
2022/12/10 07:55:58;;;;;;;37.15;7.85;;;0.20;99.90;;;;;;5014907;28;20046;-72
2022/12/10 07:58:24;;;;;;;42.03;9.13;;;0.20;99.90;;;;;;5010523;28;20381;-72
2022/12/10 08:00:50;;;;;;;32.57;7.83;;;0.20;99.90;;;;;;5020545;28;20125;-72
2022/12/10 08:03:15;;;;;;;52.53;9.25;;;0.20;99.90;;;;;;5015610;28;20444;-72
2022/12/10 08:05:41;;;;;;;27.43;8.53;;;0.20;99.90;;;;;;5013321;28;20077;-72
2022/12/10 08:08:07;;;;;;;61.47;9.70;;;0.20;99.90;;;;;;5015702;28;20037;-72
2022/12/10 08:10:37;;;;;;;38.60;9.13;;;0.20;99.90;;;;;;5016905;28;20519;-73
2022/12/10 08:13:04;;;;;;;53.33;9.45;;;0.20;99.90;;;;;;5020048;28;20037;-78
2022/12/10 08:15:29;;;;;;;38.15;8.65;;;0.20;99.90;;;;;;5018761;28;20149;-73
2022/12/10 08:17:56;;;;;;;35.17;7.13;;;0.30;99.90;;;;;;5016680;28;20385;-73
2022/12/10 08:20:22;;;;;;;44.78;9.68;;;0.20;99.90;;;;;;5014498;28;20041;-72
2022/12/10 08:22:48;;;;;;;54.17;10.43;;;0.30;99.90;;;;;;5015638;28;20086;-73
2022/12/10 08:25:14;;;;;;;28.97;8.83;;;0.20;99.90;;;;;;5006947;28;20896;-73
2022/12/10 08:27:39;;;;;;;37.43;8.23;;;0.20;99.90;;;;;;5021937;28;20049;-73
2022/12/10 08:30:05;;;;;;;44.30;9.37;;;0.30;99.90;;;;;;5019667;28;20333;-73
2022/12/10 08:32:31;;;;;;;40.15;9.68;;;0.30;99.90;;;;;;5022280;28;20075;-73
2022/12/10 08:34:57;;;;;;;38.63;8.17;;;0.20;99.90;;;;;;5018669;28;20072;-73
2022/12/10 08:37:22;;;;;;;35.53;8.50;;;0.30;99.90;;;;;;5025833;28;20038;-73
2022/12/10 08:39:48;;;;;;;37.90;9.17;;;0.20;99.90;;;;;;4999335;28;20182;-74
2022/12/10 08:42:14;;;;;;;33.47;7.17;;;0.30;99.90;;;;;;5024994;28;20080;-74
2022/12/10 08:44:40;;;;;;;31.25;8.57;;;0.20;99.90;;;;;;5016626;28;20056;-74
2022/12/10 08:47:05;;;;;;;44.23;8.73;;;0.30;99.90;;;;;;5015006;28;20112;-74
2022/12/10 08:49:31;;;;;;;50.70;8.77;;;0.30;99.90;;;;;;4998679;28;20132;-74
2022/12/10 08:51:57;;;;;;;52.23;8.63;;;0.30;99.90;;;;;;5013541;28;20382;-75
2022/12/10 08:54:22;;;;;;;41.90;8.10;;;0.30;99.90;;;;;;5008170;28;20068;-74
2022/12/10 08:56:48;;;;;;;52.93;9.23;;;0.30;99.90;;;;;;5014900;28;20045;-74
2022/12/10 08:59:14;;;;;;;45.27;8.53;;;0.30;99.90;;;;;;5018797;28;20038;-73
2022/12/10 09:01:39;;;;;;;31.73;8.23;;;0.30;99.90;;;;;;5016735;28;20053;-76
2022/12/10 09:04:05;;;;;;;38.23;8.57;;;0.30;99.90;;;;;;5023556;28;20030;-76
2022/12/10 09:06:31;;;;;;;51.77;9.10;;;0.30;99.90;;;;;;5018504;28;20093;-75
2022/12/10 09:08:56;;;;;;;46.63;7.37;;;0.30;99.90;;;;;;5021650;28;20068;-75
2022/12/10 09:11:28;;;;;;;37.30;9.17;;;0.30;99.90;;;;;;5019627;28;20045;-74
2022/12/10 09:13:54;;;;;;;33.03;8.48;;;0.30;99.90;;;;;;5014476;28;20069;-74
2022/12/10 09:16:20;;;;;;;34.03;8.52;;;0.20;99.90;;;;;;5019564;28;20042;-74
2022/12/10 09:18:46;;;;;;;34.13;8.65;;;0.30;99.90;;;;;;5011684;28;20124;-74
2022/12/10 09:21:16;;;;;;;26.00;8.00;;;0.20;99.90;;;;;;5022794;28;20071;-74
2022/12/10 09:23:43;;;;;;;38.75;8.98;;;0.20;99.90;;;;;;5021789;28;20052;-74
2022/12/10 09:26:12;;;;;;;30.95;9.00;;;0.20;99.90;;;;;;5019205;28;20037;-74
2022/12/10 09:28:39;;;;;;;29.08;8.38;;;0.20;99.90;;;;;;5011292;28;20135;-74
2022/12/10 09:31:05;;;;;;;;;;;0.20;99.90;;;;;;5025873;28;20041;-74
2022/12/10 09:33:32;;;;;;;26.23;7.10;;;0.30;99.90;;;;;;5018160;28;20119;-75
2022/12/10 09:35:58;;;;;;;34.97;7.47;;;0.30;99.90;;;;;;5017255;28;20430;-75
2022/12/10 09:38:24;;;;;;;27.00;8.30;;;0.20;99.90;;;;;;5025704;28;20112;-75
2022/12/10 09:41:00;;;;;;;24.58;8.15;;;0.20;99.90;;;;;;5022329;28;20091;-75
2022/12/10 09:43:52;;;;;;;32.10;8.88;;;0.30;99.90;;;;;;5025350;28;20041;-75
2022/12/10 09:46:33;;;;;;;42.42;9.57;;;0.30;99.90;;;;;;5014468;28;20041;-75
2022/12/10 09:49:20;;;;;;;35.38;9.90;;;0.30;99.90;;;;;;5010459;28;20103;-76
2022/12/10 09:51:46;;;;;;;35.40;8.50;;;0.30;99.90;;;;;;5016291;28;20044;-75
2022/12/10 09:54:32;;;;;;;23.03;8.17;;;0.30;99.90;;;;;;5017038;28;20050;-75
2022/12/10 09:57:00;;;;;;;40.30;9.45;;;0.30;99.90;;;;;;5016124;28;20356;-75
2022/12/10 09:59:40;;;;;;;35.47;9.43;;;0.30;99.90;;;;;;5022165;28;20633;-75
2022/12/10 10:02:21;;;;;;;27.52;8.23;;;0.30;99.90;;;;;;5017304;28;20129;-75
2022/12/10 10:04:49;;;;;;;32.85;10.23;;;0.30;99.90;;;;;;5014493;28;20048;-75
2022/12/10 10:07:30;;;;;;;35.42;9.07;;;0.30;99.90;;;;;;5014824;28;20625;-75
2022/12/10 10:10:07;;;;;;;46.97;9.35;;;0.40;99.90;;;;;;5041571;28;20708;-75
2022/12/10 10:12:34;;;;;;;33.92;7.80;;;0.30;99.90;;;;;;5018224;28;20530;-75
2022/12/10 10:15:14;;;;;;;33.60;8.07;;;0.30;99.90;;;;;;5016616;28;20042;-75
2022/12/10 10:17:45;;;;;;;32.88;7.80;;;0.40;99.90;;;;;;5012132;28;20076;-75
2022/12/10 10:20:12;;;;;;;25.40;8.73;;;0.50;99.90;;;;;;5024037;28;20087;-75
2022/12/10 10:22:39;;;;;;;35.47;8.48;;;0.40;99.90;;;;;;5040025;28;20052;-74
2022/12/10 10:25:13;;;;;;;48.13;8.48;;;0.40;99.90;;;;;;5002928;28;20058;-75
2022/12/10 10:27:38;;;;;;;42.83;9.25;;;0.50;99.90;;;;;;5022457;28;20049;-75
2022/12/10 10:30:06;;;;;;;22.97;8.40;;;0.50;99.90;;;;;;5023209;28;20044;-75
2022/12/10 10:32:35;;;;;;;29.75;8.45;;;0.50;99.90;;;;;;5023968;28;20406;-76
2022/12/10 10:35:02;;;;;;;31.48;8.75;;;0.50;99.90;;;;;;5017373;28;20033;-75
2022/12/10 10:37:33;;;;;;;26.00;7.65;;;0.50;99.90;;;;;;5017919;28;20041;-75
2022/12/10 10:39:59;;;;;;;29.75;9.25;;;0.50;99.90;;;;;;5019295;28;20136;-74
2022/12/10 10:42:38;;;;;;;24.17;8.33;;;0.50;99.90;;;;;;5019034;28;20128;-75
2022/12/10 10:45:26;;;;;;;21.27;8.15;;;0.40;99.90;;;;;;5020541;28;20517;-75
2022/12/10 10:48:33;;;;;;;27.60;7.47;;;0.50;99.90;;;;;;5007604;28;20106;-75
2022/12/10 10:51:18;;;;;;;41.75;8.48;;;0.50;99.90;;;;;;5017467;28;20057;-76
2022/12/10 10:53:51;;;;;;;31.38;7.55;;;0.40;99.90;;;;;;5037438;28;20068;-75
2022/12/10 10:56:21;;;;;;;26.20;7.63;;;0.40;99.90;;;;;;5021394;28;20375;-75
2022/12/10 10:59:27;;;;;;;28.83;8.02;;;0.40;99.90;;;;;;5045460;23;20045;-85
2022/12/10 11:02:42;;;;;;;27.17;8.27;;;0.40;99.90;;;;;;5021894;28;20033;-85
2022/12/10 11:06:04;;;;;;;30.70;9.02;;;0.40;99.90;;;;;;5008453;28;20574;-87
2022/12/10 11:09:15;;;;;;;28.42;7.43;;;0.40;99.90;;;;;;5014917;28;20117;-86
2022/12/10 11:11:41;;;;;;;20.13;7.85;;;0.40;99.90;;;;;;5005450;28;20120;-87
2022/12/10 11:14:15;;;;;;;23.08;7.15;;;0.40;99.90;;;;;;5028728;28;20125;-85
2022/12/10 11:16:41;;;;;;;25.48;8.38;;;0.40;99.90;;;;;;5006341;28;20066;-86
2022/12/10 11:19:21;;;;;;;31.17;8.57;;;0.40;99.90;;;;;;5028738;28;20038;-87
2022/12/10 11:21:47;;;;;;;23.27;8.43;;;0.40;99.90;;;;;;4998821;28;20033;-86
2022/12/10 11:24:18;;;;;;;27.47;8.40;;;0.50;99.90;;;;;;5027065;28;20037;-87
2022/12/10 11:26:57;;;;;;;34.10;8.48;;;0.40;99.90;;;;;;5009467;28;20376;-89
2022/12/10 11:29:31;;;;;;;21.90;8.38;;;0.40;99.90;;;;;;5009336;28;20076;-86
2022/12/10 11:32:21;;;;;;;20.40;7.05;;;0.40;99.90;;;;;;5026425;28;20110;-87
2022/12/10 11:35:01;;;;;;;25.25;8.50;;;0.40;99.90;;;;;;5033742;28;20066;-87
2022/12/10 11:37:46;;;;;;;30.95;8.30;;;0.40;99.90;;;;;;5016072;28;20041;-87
2022/12/10 11:40:41;;;;;;;20.52;8.63;;;0.40;99.90;;;;;;5016388;28;20041;-86
2022/12/10 11:43:17;;;;;;;32.10;10.00;;;0.40;99.90;;;;;;5024111;28;20092;-87
2022/12/10 11:46:27;;;;;;;21.00;8.90;;;0.50;99.90;;;;;;5018384;28;20309;-87
2022/12/10 11:49:21;;;;;;;23.80;8.27;;;0.50;99.90;;;;;;4988662;28;20049;-87
2022/12/10 11:52:00;;;;;;;22.77;8.63;;;0.50;99.90;;;;;;5032550;28;20095;-87
2022/12/10 11:54:38;;;;;;;25.55;9.32;;;0.40;99.90;;;;;;5013892;28;20052;-89
2022/12/10 11:57:04;;;;;;;28.77;9.02;;;0.50;99.90;;;;;;5036339;28;20045;-87
2022/12/10 11:59:48;;;;;;;29.97;9.50;;;0.50;99.90;;;;;;5011391;28;20645;-87
2022/12/10 12:02:40;;;;;;;25.45;9.65;;;0.50;99.90;;;;;;5008381;28;20037;-87
2022/12/10 12:05:21;;;;;;;21.73;8.02;;;0.50;99.90;;;;;;5015988;28;20053;-87
2022/12/10 12:08:06;;;;;;;31.05;10.40;;;0.60;99.90;;;;;;5026043;28;20037;-87
2022/12/10 12:11:01;;;;;;;27.48;9.70;;;0.60;99.90;;;;;;5014742;28;20036;-87
2022/12/10 12:13:35;;;;;;;22.38;8.73;;;0.60;99.90;;;;;;5004138;28;20041;-87
2022/12/10 12:16:06;;;;;;;24.42;9.43;;;0.60;99.90;;;;;;5012159;28;20049;-87
2022/12/10 12:18:45;;;;;;;28.58;9.88;;;0.60;99.90;;;;;;5011266;28;20037;-87
2022/12/10 12:21:15;;;;;;;24.27;8.57;;;0.60;99.90;;;;;;5017208;28;20132;-88
2022/12/10 12:23:50;;;;;;;28.55;11.05;;;0.80;99.90;;;;;;5021555;28;20042;-88
2022/12/10 12:26:39;;;;;;;30.23;10.82;;;0.70;99.90;;;;;;5027806;28;20120;-88
2022/12/10 12:29:23;;;;;;;26.80;9.82;;;0.70;99.90;;;;;;5015890;28;20060;-88
2022/12/10 12:32:01;;;;;;;25.45;10.15;;;0.70;99.90;;;;;;5029004;28;20045;-88
2022/12/10 12:34:45;;;;;;;30.20;10.32;;;0.70;99.90;;;;;;5058132;28;20037;-88
2022/12/10 12:37:16;;;;;;;29.00;10.10;;;0.80;99.90;;;;;;5026874;28;20041;-88
2022/12/10 12:39:58;;;;;;;23.13;9.70;;;0.70;99.90;;;;;;5045357;28;20037;-88
2022/12/10 12:42:40;;;;;;;29.30;9.35;;;0.80;99.90;;;;;;5022138;28;20037;-88
2022/12/10 12:45:21;;;;;;;28.75;10.95;;;0.70;99.90;;;;;;5028121;28;20037;-88
2022/12/10 12:47:49;;;;;;;32.97;11.07;;;0.70;99.90;;;;;;5009007;28;20042;-88
2022/12/10 12:50:34;;;;;;;32.58;12.13;;;0.70;99.90;;;;;;5003493;28;20041;-89
2022/12/10 12:53:01;;;;;;;31.70;9.82;;;0.70;99.90;;;;;;5020259;28;20052;-88
2022/12/10 12:55:44;;;;;;;29.70;10.38;;;0.80;99.90;;;;;;5005951;28;20106;-88
2022/12/10 12:58:13;;;;;;;30.10;10.88;;;0.80;99.90;;;;;;5010296;28;20045;-89
2022/12/10 13:00:43;;;;;;;36.15;11.77;;;0.70;99.90;;;;;;5008603;28;20049;-88
2022/12/10 13:03:34;;;;;;;29.80;11.18;;;0.70;99.90;;;;;;5027039;28;20040;-88
2022/12/10 13:06:33;;;;;;;24.60;9.55;;;0.70;99.90;;;;;;5006638;28;20088;-88
2022/12/10 13:09:11;;;;;;;28.67;9.10;;;0.70;99.90;;;;;;4966718;28;20099;-88
2022/12/10 13:11:38;;;;;;;30.27;11.38;;;0.70;99.90;;;;;;5025364;28;20041;-88
2022/12/10 13:14:07;;;;;;;;;;;0.70;99.90;;;;;;5006405;28;20037;-89